Time,TemperatureF,DewpointF,PressureIn,WindDirection,WindDirectionDegrees,WindSpeedMPH,WindSpeedGustMPH,Humidity,HourlyPrecipIn,Conditions,Clouds,dailyrainin,SoftwareType,DateUTC
2013-09-19 00:01:00,61.0,57.0,30.16,SSW,195,0.0,0.0,88,0.00,,,0.00,,2013-09-19 04:01:00,
2013-09-19 00:25:00,60.0,57.0,30.16,SSW,195,0.0,0.0,89,0.00,,,0.00,,2013-09-19 04:25:00,
2013-09-19 00:54:00,60.0,57.0,30.16,SSW,195,0.0,0.0,89,0.00,,,0.00,,2013-09-19 04:54:00,
2013-09-19 01:13:00,60.0,57.0,30.15,SSW,195,0.0,0.0,89,0.00,,,0.00,,2013-09-19 05:13:00,
2013-09-19 01:23:00,60.0,57.0,30.15,SSW,195,0.0,0.0,89,0.00,,,0.00,,2013-09-19 05:23:00,
2013-09-19 01:52:00,59.0,56.0,30.14,SSW,195,0.0,0.0,90,0.00,,,0.00,,2013-09-19 05:52:00,
2013-09-19 02:12:00,59.0,56.0,30.14,SSW,195,0.0,0.0,90,0.00,,,0.00,,2013-09-19 06:12:00,
2013-09-19 02:22:00,60.0,57.0,30.14,SSW,195,0.0,0.0,91,0.00,,,0.00,,2013-09-19 06:22:00,
2013-09-19 02:43:00,60.0,57.0,30.15,SSW,195,0.0,0.0,91,0.00,,,0.00,,2013-09-19 06:43:00,
2013-09-19 02:52:00,60.0,57.0,30.15,SSW,195,0.0,0.0,91,0.00,,,0.00,,2013-09-19 06:52:00,
2013-09-19 03:12:00,60.0,57.0,30.14,SSW,195,0.0,0.0,91,0.00,,,0.00,,2013-09-19 07:12:00,
2013-09-19 03:22:00,60.0,57.0,30.14,SSW,195,0.0,0.0,91,0.00,,,0.00,,2013-09-19 07:22:00,
2013-09-19 03:33:00,60.0,57.0,30.14,SSW,195,0.0,0.0,91,0.00,,,0.00,,2013-09-19 07:33:00,
2013-09-19 03:52:00,60.0,57.0,30.14,SSW,195,0.0,0.0,91,0.00,,,0.00,,2013-09-19 07:52:00,
2013-09-19 04:12:00,60.0,57.0,30.13,SSW,195,0.0,0.0,91,0.00,,,0.00,,2013-09-19 08:12:00,
2013-09-19 04:22:00,60.0,57.0,30.13,SSW,195,0.0,0.0,91,0.00,,,0.00,,2013-09-19 08:22:00,
2013-09-19 04:42:00,60.0,57.0,30.14,SSW,195,0.0,0.0,91,0.00,,,0.00,,2013-09-19 08:42:00,
2013-09-19 04:52:00,60.0,57.0,30.14,SSW,195,0.0,0.0,91,0.00,,,0.00,,2013-09-19 08:52:00,
2013-09-19 05:11:00,60.0,58.0,30.13,SSW,195,0.0,0.0,92,0.00,,,0.00,,2013-09-19 09:11:00,
2013-09-19 05:22:00,60.0,58.0,30.13,SSW,195,0.0,0.0,92,0.00,,,0.00,,2013-09-19 09:22:00,
2013-09-19 05:43:00,60.0,58.0,30.13,SSW,195,0.0,0.0,92,0.00,,,0.00,,2013-09-19 09:43:00,
2013-09-19 05:53:00,60.0,58.0,30.13,SSW,195,0.0,0.0,92,0.00,,,0.00,,2013-09-19 09:53:00,
2013-09-19 06:12:00,60.0,58.0,30.13,SSW,195,0.0,0.0,92,0.00,,,0.00,,2013-09-19 10:12:00,
2013-09-19 06:24:00,60.0,58.0,30.13,SSW,195,0.0,0.0,92,0.00,,,0.00,,2013-09-19 10:24:00,
2013-09-19 06:43:00,60.0,58.0,30.13,SSW,195,0.0,0.0,92,0.00,,,0.00,,2013-09-19 10:43:00,
2013-09-19 06:52:00,60.0,58.0,30.13,SSW,195,0.0,0.0,92,0.00,,,0.00,,2013-09-19 10:52:00,
2013-09-19 07:12:00,60.0,58.0,30.13,SSW,195,0.0,0.0,92,0.00,,,0.00,,2013-09-19 11:12:00,
2013-09-19 07:22:00,60.0,58.0,30.13,SSW,195,0.0,0.0,92,0.00,,,0.00,,2013-09-19 11:22:00,
2013-09-19 07:53:00,60.0,58.0,30.14,SSW,195,0.0,0.0,92,0.00,,,0.00,,2013-09-19 11:53:00,
2013-09-19 08:11:00,60.0,58.0,30.14,SSW,195,0.0,0.0,92,0.00,,,0.00,,2013-09-19 12:11:00,
2013-09-19 08:22:00,60.0,58.0,30.14,SSW,195,0.0,0.0,92,0.00,,,0.00,,2013-09-19 12:22:00,
2013-09-19 08:43:00,60.0,58.0,30.15,SSW,195,0.0,0.0,93,0.00,,,0.00,,2013-09-19 12:43:00,
2013-09-19 08:52:00,60.0,58.0,30.15,SSW,195,0.0,0.0,93,0.00,,,0.00,,2013-09-19 12:52:00,
2013-09-19 09:11:00,60.0,58.0,30.16,SSW,196,0.0,0.0,93,0.00,,,0.00,,2013-09-19 13:11:00,
2013-09-19 09:22:00,60.0,58.0,30.16,SSW,196,0.0,0.0,93,0.00,,,0.00,,2013-09-19 13:22:00,
2013-09-19 09:52:00,60.0,58.0,30.16,SSW,195,0.0,0.0,93,0.00,,,0.00,,2013-09-19 13:52:00,
2013-09-19 10:12:00,60.0,58.0,30.16,SSW,195,0.0,0.0,93,0.00,,,0.00,,2013-09-19 14:12:00,
2013-09-19 10:22:00,60.0,58.0,30.16,SSW,195,0.0,0.0,93,0.00,,,0.00,,2013-09-19 14:22:00,
2013-09-19 10:52:00,61.0,58.0,30.17,SSW,195,0.0,0.0,90,0.00,,,0.00,,2013-09-19 14:52:00,
2013-09-19 11:02:00,61.0,58.0,30.17,SSW,195,0.0,0.0,90,0.00,,,0.00,,2013-09-19 15:02:00,
2013-09-19 11:22:00,62.0,59.0,30.17,SSE,148,0.0,0.0,90,0.00,,,0.00,,2013-09-19 15:22:00,
2013-09-19 11:53:00,66.0,62.0,30.16,SE,134,0.0,0.0,86,0.00,,,0.00,,2013-09-19 15:53:00,
2013-09-19 12:04:00,66.0,62.0,30.16,SE,134,0.0,0.0,86,0.00,,,0.00,,2013-09-19 16:04:00,
2013-09-19 12:24:00,68.0,61.0,30.15,South,182,0.0,0.0,79,0.00,,,0.00,,2013-09-19 16:24:00,
2013-09-19 12:52:00,71.0,64.0,30.14,SE,146,0.0,1.0,79,0.00,,,0.00,,2013-09-19 16:52:00,
2013-09-19 13:12:00,71.0,64.0,30.13,SSW,207,0.0,0.0,78,0.00,,,0.00,,2013-09-19 17:12:00,
2013-09-19 13:23:00,72.0,64.0,30.13,South,186,0.0,0.0,75,0.00,,,0.00,,2013-09-19 17:23:00,
2013-09-19 13:53:00,71.0,63.0,30.12,SE,136,0.0,1.0,76,0.00,,,0.00,,2013-09-19 17:53:00,
2013-09-19 14:11:00,74.0,65.0,30.11,SSW,196,0.0,1.0,73,0.00,,,0.00,,2013-09-19 18:11:00,
2013-09-19 14:22:00,74.0,65.0,30.11,SSW,196,0.0,1.0,73,0.00,,,0.00,,2013-09-19 18:22:00,
2013-09-19 14:42:00,74.0,61.0,30.09,SW,222,0.0,3.0,65,0.00,,,0.00,,2013-09-19 18:42:00,
2013-09-19 14:52:00,74.0,61.0,30.09,SW,222,0.0,3.0,65,0.00,,,0.00,,2013-09-19 18:52:00,
2013-09-19 15:12:00,74.0,64.0,30.08,WSW,244,0.0,4.0,70,0.00,,,0.00,,2013-09-19 19:12:00,
2013-09-19 15:22:00,74.0,64.0,30.08,WSW,244,0.0,4.0,70,0.00,,,0.00,,2013-09-19 19:22:00,
2013-09-19 15:52:00,75.0,64.0,30.06,West,260,0.0,1.0,68,0.00,,,0.00,,2013-09-19 19:52:00,
2013-09-19 16:12:00,75.0,65.0,30.06,SW,217,0.0,0.0,71,0.00,,,0.00,,2013-09-19 20:12:00,
2013-09-19 16:22:00,75.0,65.0,30.06,SW,217,0.0,0.0,71,0.00,,,0.00,,2013-09-19 20:22:00,
2013-09-19 16:42:00,74.0,65.0,30.05,South,191,0.0,1.0,74,0.00,,,0.00,,2013-09-19 20:42:00,
2013-09-19 16:52:00,74.0,65.0,30.05,South,191,0.0,1.0,74,0.00,,,0.00,,2013-09-19 20:52:00,
2013-09-19 17:12:00,74.0,63.0,30.05,SSE,156,0.0,0.0,69,0.00,,,0.00,,2013-09-19 21:12:00,
2013-09-19 17:22:00,74.0,64.0,30.05,SSW,192,0.0,2.0,71,0.00,,,0.00,,2013-09-19 21:22:00,
2013-09-19 17:34:00,74.0,64.0,30.05,SSW,192,0.0,2.0,71,0.00,,,0.00,,2013-09-19 21:34:00,
2013-09-19 17:44:00,74.0,64.0,30.05,SSW,192,0.0,2.0,71,0.00,,,0.00,,2013-09-19 21:44:00,
2013-09-19 17:55:00,73.0,65.0,30.05,WSW,257,0.0,0.0,76,0.00,,,0.00,,2013-09-19 21:55:00,
2013-09-19 18:24:00,71.0,65.0,30.05,WNW,292,0.0,0.0,80,0.00,,,0.00,,2013-09-19 22:24:00,
2013-09-19 18:53:00,70.0,65.0,30.05,NW,322,0.0,0.0,83,0.00,,,0.00,,2013-09-19 22:53:00,
2013-09-19 19:23:00,69.0,64.0,30.05,NW,322,0.0,0.0,83,0.00,,,0.00,,2013-09-19 23:23:00,
2013-09-19 19:43:00,68.0,63.0,30.04,NW,322,0.0,0.0,84,0.00,,,0.00,,2013-09-19 23:43:00,
2013-09-19 19:53:00,68.0,63.0,30.04,NW,322,0.0,0.0,84,0.00,,,0.00,,2013-09-19 23:53:00,
2013-09-19 20:12:00,68.0,63.0,30.04,NW,322,0.0,0.0,85,0.00,,,0.00,,2013-09-20 00:12:00,
2013-09-19 20:22:00,68.0,63.0,30.04,NW,322,0.0,0.0,85,0.00,,,0.00,,2013-09-20 00:22:00,
2013-09-19 20:52:00,68.0,63.0,30.04,NW,322,0.0,0.0,85,0.00,,,0.00,,2013-09-20 00:52:00,
2013-09-19 21:12:00,68.0,64.0,30.05,SW,225,0.0,0.0,86,0.00,,,0.00,,2013-09-20 01:12:00,
2013-09-19 21:22:00,68.0,64.0,30.05,SW,225,0.0,0.0,86,0.00,,,0.00,,2013-09-20 01:22:00,
2013-09-19 21:42:00,67.0,63.0,30.06,SW,214,0.0,0.0,87,0.00,,,0.00,,2013-09-20 01:42:00,
2013-09-19 21:52:00,67.0,63.0,30.06,SW,214,0.0,0.0,88,0.00,,,0.00,,2013-09-20 01:52:00,
2013-09-19 22:12:00,67.0,63.0,30.06,SW,214,0.0,0.0,88,0.00,,,0.00,,2013-09-20 02:12:00,
2013-09-19 22:22:00,67.0,63.0,30.06,SW,214,0.0,0.0,88,0.00,,,0.00,,2013-09-20 02:22:00,
2013-09-19 22:53:00,67.0,63.0,30.06,SW,214,0.0,0.0,88,0.00,,,0.00,,2013-09-20 02:53:00,
2013-09-19 23:12:00,67.0,63.0,30.06,SW,214,0.0,0.0,88,0.00,,,0.00,,2013-09-20 03:12:00,
2013-09-19 23:23:00,67.0,63.0,30.06,SW,214,0.0,0.0,88,0.00,,,0.00,,2013-09-20 03:23:00,
2013-09-19 23:45:00,67.0,63.0,30.06,WNW,292,0.0,0.0,87,0.00,,,0.00,,2013-09-20 03:45:00,
2013-09-19 23:56:00,67.0,63.0,30.06,WNW,292,0.0,0.0,87,0.00,,,0.00,,2013-09-20 03:56:00,